Time,TemperatureF,DewpointF,PressureIn,WindDirection,WindDirectionDegrees,WindSpeedMPH,WindSpeedGustMPH,Humidity,HourlyPrecipIn,Conditions,Clouds,dailyrainin,SoftwareType,DateUTC
2013-06-23 00:01:00,49.6,41.9,30.02,SW,225,0.8,2.9,75,0.00,,,0.00,WUHU216HW,2013-06-23 06:01:00,
2013-06-23 00:06:00,48.9,41.6,30.02,SW,225,0.0,1.7,76,0.00,,,0.00,WUHU216HW,2013-06-23 06:06:00,
2013-06-23 00:11:00,48.5,41.2,30.02,WSW,248,0.0,0.8,76,0.00,,,0.00,WUHU216HW,2013-06-23 06:11:00,
2013-06-23 00:16:00,47.8,40.9,30.02,West,270,0.0,0.0,77,0.00,,,0.00,WUHU216HW,2013-06-23 06:16:00,
2013-06-23 00:21:00,47.3,40.7,30.02,West,270,0.0,0.0,78,0.00,,,0.00,WUHU216HW,2013-06-23 06:21:00,
2013-06-23 00:26:00,47.1,40.9,30.02,West,270,0.0,0.0,79,0.00,,,0.00,WUHU216HW,2013-06-23 06:26:00,
2013-06-23 00:31:00,47.1,40.9,30.02,West,270,0.0,0.0,79,0.00,,,0.00,WUHU216HW,2013-06-23 06:31:00,
2013-06-23 00:36:00,47.1,41.2,30.02,West,270,0.0,0.0,80,0.00,,,0.00,WUHU216HW,2013-06-23 06:36:00,
2013-06-23 00:41:00,46.9,41.1,30.02,West,270,0.0,0.0,80,0.00,,,0.00,WUHU216HW,2013-06-23 06:41:00,
2013-06-23 00:46:00,46.9,41.1,30.02,West,270,0.0,0.0,80,0.00,,,0.00,WUHU216HW,2013-06-23 06:46:00,
2013-06-23 00:51:00,46.5,40.8,30.02,West,270,0.0,0.0,80,0.00,,,0.00,WUHU216HW,2013-06-23 06:51:00,
2013-06-23 00:56:00,46.2,40.4,30.02,West,270,0.0,0.0,80,0.00,,,0.00,WUHU216HW,2013-06-23 06:56:00,
2013-06-23 01:01:00,46.0,40.5,30.02,West,270,0.0,1.7,81,0.00,,,0.00,WUHU216HW,2013-06-23 07:01:00,
2013-06-23 01:06:00,45.6,40.2,30.01,West,270,2.0,2.2,81,0.00,,,0.00,WUHU216HW,2013-06-23 07:06:00,
2013-06-23 01:11:00,46.0,40.8,30.01,SW,225,1.3,3.8,82,0.00,,,0.00,WUHU216HW,2013-06-23 07:11:00,
2013-06-23 01:16:00,46.0,40.5,30.01,SW,225,0.0,3.8,81,0.00,,,0.00,WUHU216HW,2013-06-23 07:16:00,
2013-06-23 01:21:00,45.6,40.5,30.01,SW,225,0.0,0.0,82,0.00,,,0.00,WUHU216HW,2013-06-23 07:21:00,
2013-06-23 01:27:00,45.1,39.9,30.00,SW,225,0.0,0.0,82,0.00,,,0.00,WUHU216HW,2013-06-23 07:27:00,
2013-06-23 01:32:00,44.9,39.8,30.01,SW,225,0.0,0.0,82,0.00,,,0.00,WUHU216HW,2013-06-23 07:32:00,
2013-06-23 01:37:00,44.7,39.6,30.01,SW,225,0.0,0.0,82,0.00,,,0.00,WUHU216HW,2013-06-23 07:37:00,
2013-06-23 01:42:00,44.6,39.4,30.00,SW,225,0.0,0.0,82,0.00,,,0.00,WUHU216HW,2013-06-23 07:42:00,
2013-06-23 01:47:00,44.2,39.3,30.00,SW,225,0.0,0.0,83,0.00,,,0.00,WUHU216HW,2013-06-23 07:47:00,
2013-06-23 01:52:00,43.7,38.8,30.00,SW,225,0.0,0.0,83,0.00,,,0.00,WUHU216HW,2013-06-23 07:52:00,
2013-06-23 01:57:00,43.5,38.6,29.99,SW,225,0.0,0.0,83,0.00,,,0.00,WUHU216HW,2013-06-23 07:57:00,
2013-06-23 02:02:00,43.5,38.9,30.00,North,0,0.0,0.0,84,0.00,,,0.00,WUHU216HW,2013-06-23 08:02:00,
2013-06-23 02:07:00,43.3,38.8,29.99,SW,225,0.0,0.0,84,0.00,,,0.00,WUHU216HW,2013-06-23 08:07:00,
2013-06-23 02:12:00,43.5,38.9,29.99,SW,225,0.0,0.0,84,0.00,,,0.00,WUHU216HW,2013-06-23 08:12:00,
2013-06-23 02:17:00,43.5,39.2,29.99,SW,225,0.0,0.0,85,0.00,,,0.00,WUHU216HW,2013-06-23 08:17:00,
2013-06-23 02:22:00,43.5,39.2,29.99,SW,225,0.0,0.0,85,0.00,,,0.00,WUHU216HW,2013-06-23 08:22:00,
2013-06-23 02:28:00,43.5,39.2,29.99,SW,225,0.0,0.0,85,0.00,,,0.00,WUHU216HW,2013-06-23 08:28:00,
2013-06-23 02:33:00,44.2,40.3,29.99,SW,225,0.0,0.0,86,0.00,,,0.00,WUHU216HW,2013-06-23 08:33:00,
2013-06-23 02:38:00,44.2,40.0,29.99,North,0,0.0,0.0,85,0.00,,,0.00,WUHU216HW,2013-06-23 08:38:00,
2013-06-23 02:43:00,43.8,39.6,29.99,WSW,248,0.0,0.0,85,0.00,,,0.00,WUHU216HW,2013-06-23 08:43:00,
2013-06-23 02:48:00,43.5,39.2,29.98,WSW,248,0.0,0.0,85,0.00,,,0.00,WUHU216HW,2013-06-23 08:48:00,
2013-06-23 02:53:00,43.3,39.1,29.98,WSW,248,0.0,0.0,85,0.00,,,0.00,WUHU216HW,2013-06-23 08:53:00,
2013-06-23 02:58:00,43.3,39.5,29.99,WSW,248,0.0,0.0,86,0.00,,,0.00,WUHU216HW,2013-06-23 08:58:00,
2013-06-23 03:03:00,42.9,38.7,29.98,WSW,248,0.0,0.0,85,0.00,,,0.00,WUHU216HW,2013-06-23 09:03:00,
2013-06-23 03:08:00,42.6,38.3,29.98,WSW,248,0.0,0.0,85,0.00,,,0.00,WUHU216HW,2013-06-23 09:08:00,
2013-06-23 03:14:00,42.4,38.2,29.98,WSW,248,0.0,0.0,85,0.00,,,0.00,WUHU216HW,2013-06-23 09:14:00,
2013-06-23 03:19:00,42.0,38.1,29.99,WSW,248,0.0,0.0,86,0.00,,,0.00,WUHU216HW,2013-06-23 09:19:00,
2013-06-23 03:24:00,42.4,38.5,29.98,WSW,248,0.0,0.0,86,0.00,,,0.00,WUHU216HW,2013-06-23 09:24:00,
2013-06-23 03:29:00,42.6,39.0,29.99,WSW,248,0.0,0.0,87,0.00,,,0.00,WUHU216HW,2013-06-23 09:29:00,
2013-06-23 03:34:00,42.9,39.3,29.98,WSW,248,0.0,0.0,87,0.00,,,0.00,WUHU216HW,2013-06-23 09:34:00,
2013-06-23 03:39:00,42.9,39.3,29.98,WSW,248,0.0,0.0,87,0.00,,,0.00,WUHU216HW,2013-06-23 09:39:00,
2013-06-23 03:44:00,42.6,39.0,29.98,WSW,248,0.0,0.0,87,0.00,,,0.00,WUHU216HW,2013-06-23 09:44:00,
2013-06-23 03:49:00,42.0,38.1,29.98,WSW,248,0.0,0.0,86,0.00,,,0.00,WUHU216HW,2013-06-23 09:49:00,
2013-06-23 03:54:00,41.5,37.6,29.97,WSW,248,0.0,0.0,86,0.00,,,0.00,WUHU216HW,2013-06-23 09:54:00,
2013-06-23 03:59:00,41.1,37.5,29.97,WSW,248,0.0,0.0,87,0.00,,,0.00,WUHU216HW,2013-06-23 09:59:00,
2013-06-23 04:05:00,41.1,37.5,29.97,WSW,248,0.0,0.0,87,0.00,,,0.00,WUHU216HW,2013-06-23 10:05:00,
2013-06-23 04:10:00,41.5,38.2,29.97,WSW,248,0.0,0.0,88,0.00,,,0.00,WUHU216HW,2013-06-23 10:10:00,
2013-06-23 04:15:00,42.0,38.7,29.97,WSW,248,0.0,0.0,88,0.00,,,0.00,WUHU216HW,2013-06-23 10:15:00,
2013-06-23 04:20:00,42.4,39.4,29.97,WSW,248,0.0,0.0,89,0.00,,,0.00,WUHU216HW,2013-06-23 10:20:00,
2013-06-23 04:25:00,42.6,39.6,29.97,WSW,248,0.0,0.0,89,0.00,,,0.00,WUHU216HW,2013-06-23 10:25:00,
2013-06-23 04:30:00,42.8,39.9,29.97,WSW,248,0.0,0.0,89,0.00,,,0.00,WUHU216HW,2013-06-23 10:30:00,
2013-06-23 04:35:00,42.6,39.6,29.97,WSW,248,0.0,0.0,89,0.00,,,0.00,WUHU216HW,2013-06-23 10:35:00,
2013-06-23 04:40:00,42.4,39.4,29.97,WSW,248,0.0,0.0,89,0.00,,,0.00,WUHU216HW,2013-06-23 10:40:00,
2013-06-23 04:45:00,41.7,38.4,29.97,WSW,248,0.0,0.0,88,0.00,,,0.00,WUHU216HW,2013-06-23 10:45:00,
2013-06-23 04:50:00,41.1,37.8,29.97,WSW,248,0.0,0.0,88,0.00,,,0.00,WUHU216HW,2013-06-23 10:50:00,
2013-06-23 04:55:00,40.8,37.5,29.98,WSW,248,0.0,0.0,88,0.00,,,0.00,WUHU216HW,2013-06-23 10:55:00,
2013-06-23 05:00:00,40.4,37.1,29.98,WSW,248,0.0,0.0,88,0.00,,,0.00,WUHU216HW,2013-06-23 11:00:00,
2013-06-23 05:05:00,40.2,36.9,29.97,WSW,248,0.0,0.0,88,0.00,,,0.00,WUHU216HW,2013-06-23 11:05:00,
2013-06-23 05:10:00,40.4,37.1,29.97,WSW,248,0.0,0.0,88,0.00,,,0.00,WUHU216HW,2013-06-23 11:10:00,
2013-06-23 05:15:00,40.4,37.1,29.96,WSW,248,0.0,0.0,88,0.00,,,0.00,WUHU216HW,2013-06-23 11:15:00,
2013-06-23 05:21:00,40.4,37.1,29.96,WSW,248,0.0,0.0,88,0.00,,,0.00,WUHU216HW,2013-06-23 11:21:00,
2013-06-23 05:26:00,40.4,37.1,29.96,WSW,248,0.0,0.0,88,0.00,,,0.00,WUHU216HW,2013-06-23 11:26:00,
2013-06-23 05:31:00,40.6,37.3,29.96,WSW,248,0.0,0.0,88,0.00,,,0.00,WUHU216HW,2013-06-23 11:31:00,
2013-06-23 05:36:00,40.8,37.5,29.96,WSW,248,0.0,0.0,88,0.00,,,0.00,WUHU216HW,2013-06-23 11:36:00,
2013-06-23 05:41:00,41.0,37.9,29.96,WSW,248,0.0,0.0,89,0.00,,,0.00,WUHU216HW,2013-06-23 11:41:00,
2013-06-23 05:46:00,40.8,37.5,29.96,WSW,248,0.0,0.0,88,0.00,,,0.00,WUHU216HW,2013-06-23 11:46:00,
2013-06-23 05:51:00,40.8,37.8,29.96,WSW,248,0.0,0.0,89,0.00,,,0.00,WUHU216HW,2013-06-23 11:51:00,
2013-06-23 05:56:00,40.6,37.6,29.95,WSW,248,0.0,0.0,89,0.00,,,0.00,WUHU216HW,2013-06-23 11:56:00,
2013-06-23 06:01:00,40.8,37.8,29.96,WSW,248,0.0,0.0,89,0.00,,,0.00,WUHU216HW,2013-06-23 12:01:00,
2013-06-23 06:06:00,40.8,37.8,29.95,WSW,248,0.0,0.0,89,0.00,,,0.00,WUHU216HW,2013-06-23 12:06:00,
2013-06-23 06:11:00,41.1,38.1,29.95,WSW,248,0.0,0.0,89,0.00,,,0.00,WUHU216HW,2013-06-23 12:11:00,
2013-06-23 06:16:00,41.3,38.3,29.95,WSW,248,0.0,0.0,89,0.00,,,0.00,WUHU216HW,2013-06-23 12:16:00,
2013-06-23 06:21:00,41.5,38.5,29.95,WSW,248,0.0,0.0,89,0.00,,,0.00,WUHU216HW,2013-06-23 12:21:00,
2013-06-23 06:26:00,41.7,38.7,29.95,WSW,248,0.0,0.0,89,0.00,,,0.00,WUHU216HW,2013-06-23 12:26:00,
2013-06-23 06:31:00,41.5,38.5,29.95,WSW,248,0.0,0.0,89,0.00,,,0.00,WUHU216HW,2013-06-23 12:31:00,
2013-06-23 06:36:00,41.5,38.5,29.95,WSW,248,0.0,0.0,89,0.00,,,0.00,WUHU216HW,2013-06-23 12:36:00,
2013-06-23 06:42:00,41.7,38.7,29.95,WSW,248,0.0,0.0,89,0.00,,,0.00,WUHU216HW,2013-06-23 12:42:00,
2013-06-23 06:47:00,40.8,37.8,29.95,WSW,248,0.0,0.0,89,0.00,,,0.00,WUHU216HW,2013-06-23 12:47:00,
2013-06-23 06:52:00,40.2,37.2,29.95,WSW,248,0.0,0.0,89,0.00,,,0.00,WUHU216HW,2013-06-23 12:52:00,
2013-06-23 06:57:00,40.4,37.4,29.95,WSW,248,0.0,0.0,89,0.00,,,0.00,WUHU216HW,2013-06-23 12:57:00,
2013-06-23 07:02:00,40.1,37.0,29.95,WSW,248,0.0,0.0,89,0.00,,,0.00,WUHU216HW,2013-06-23 13:02:00,
2013-06-23 07:07:00,39.9,36.9,29.95,WSW,248,0.0,0.0,89,0.00,,,0.00,WUHU216HW,2013-06-23 13:07:00,
2013-06-23 07:12:00,39.9,36.9,29.95,WSW,248,0.0,0.0,89,0.00,,,0.00,WUHU216HW,2013-06-23 13:12:00,
2013-06-23 07:17:00,40.2,37.2,29.95,WSW,248,0.0,0.0,89,0.00,,,0.00,WUHU216HW,2013-06-23 13:17:00,
2013-06-23 07:22:00,40.8,37.8,29.95,WSW,248,0.0,0.0,89,0.00,,,0.00,WUHU216HW,2013-06-23 13:22:00,
2013-06-23 07:27:00,41.1,38.1,29.95,WSW,248,0.0,0.0,89,0.00,,,0.00,WUHU216HW,2013-06-23 13:27:00,
2013-06-23 07:32:00,41.9,39.2,29.95,WSW,248,0.0,0.0,90,0.00,,,0.00,WUHU216HW,2013-06-23 13:32:00,
2013-06-23 07:38:00,41.9,39.0,29.95,WSW,248,0.0,0.0,89,0.00,,,0.00,WUHU216HW,2013-06-23 13:38:00,
2013-06-23 07:43:00,42.4,39.4,29.95,WSW,248,0.0,0.0,89,0.00,,,0.00,WUHU216HW,2013-06-23 13:43:00,
2013-06-23 07:48:00,42.6,39.6,29.95,WSW,248,0.0,0.0,89,0.00,,,0.00,WUHU216HW,2013-06-23 13:48:00,
2013-06-23 07:53:00,43.1,40.1,29.95,WSW,248,0.0,0.0,89,0.00,,,0.00,WUHU216HW,2013-06-23 13:53:00,
2013-06-23 07:58:00,44.0,41.3,29.95,WSW,248,0.0,0.0,90,0.00,,,0.00,WUHU216HW,2013-06-23 13:58:00,
2013-06-23 08:03:00,45.1,42.4,29.95,WSW,248,0.0,0.0,90,0.00,,,0.00,WUHU216HW,2013-06-23 14:03:00,
2013-06-23 08:08:00,45.6,42.8,29.95,WSW,248,0.0,0.0,90,0.00,,,0.00,WUHU216HW,2013-06-23 14:08:00,
2013-06-23 08:13:00,46.2,43.2,29.95,West,270,0.0,0.0,89,0.00,,,0.00,WUHU216HW,2013-06-23 14:13:00,
2013-06-23 08:18:00,47.3,44.2,29.95,WSW,248,0.0,0.0,89,0.00,,,0.00,WUHU216HW,2013-06-23 14:18:00,
2013-06-23 08:23:00,50.0,46.5,29.95,WSW,248,0.0,0.0,88,0.00,,,0.00,WUHU216HW,2013-06-23 14:23:00,
2013-06-23 08:28:00,50.5,46.4,29.95,WSW,248,0.0,0.0,86,0.00,,,0.00,WUHU216HW,2013-06-23 14:28:00,
2013-06-23 08:33:00,50.1,45.1,29.95,WSW,248,0.0,0.0,83,0.00,,,0.00,WUHU216HW,2013-06-23 14:33:00,
2013-06-23 08:38:00,51.0,45.5,29.94,WSW,248,0.0,0.0,82,0.00,,,0.00,WUHU216HW,2013-06-23 14:38:00,
2013-06-23 08:43:00,58.1,50.5,29.94,WSW,248,0.0,0.0,78,0.00,,,0.00,WUHU216HW,2013-06-23 14:43:00,
2013-06-23 08:48:00,65.1,52.5,29.94,West,270,0.0,0.0,64,0.00,,,0.00,WUHU216HW,2013-06-23 14:48:00,
2013-06-23 08:53:00,68.0,50.6,29.94,West,270,0.0,0.0,54,0.00,,,0.00,WUHU216HW,2013-06-23 14:53:00,
2013-06-23 08:59:00,70.1,51.6,29.94,West,270,0.0,0.0,52,0.00,,,0.00,WUHU216HW,2013-06-23 14:59:00,
2013-06-23 09:04:00,69.9,51.0,29.94,West,270,0.0,0.0,51,0.00,,,0.00,WUHU216HW,2013-06-23 15:04:00,
2013-06-23 09:09:00,72.1,51.2,29.94,West,270,0.0,0.0,48,0.00,,,0.00,WUHU216HW,2013-06-23 15:09:00,
2013-06-23 09:14:00,73.7,51.5,29.94,West,270,0.0,0.0,46,0.00,,,0.00,WUHU216HW,2013-06-23 15:14:00,
2013-06-23 09:19:00,72.3,50.2,29.94,WNW,293,0.0,0.0,46,0.00,,,0.00,WUHU216HW,2013-06-23 15:19:00,
2013-06-23 09:24:00,73.5,50.7,29.94,WNW,293,0.0,0.0,45,0.00,,,0.00,WUHU216HW,2013-06-23 15:24:00,
2013-06-23 09:29:00,73.0,49.8,29.93,West,270,0.0,0.0,44,0.00,,,0.00,WUHU216HW,2013-06-23 15:29:00,
2013-06-23 09:34:00,74.4,51.0,29.93,West,270,0.0,0.0,44,0.00,,,0.00,WUHU216HW,2013-06-23 15:34:00,
2013-06-23 09:39:00,75.2,49.8,29.93,WSW,248,0.0,2.2,41,0.00,,,0.00,WUHU216HW,2013-06-23 15:39:00,
2013-06-23 09:44:00,75.9,50.5,29.93,West,270,2.9,3.8,42,0.00,,,0.00,WUHU216HW,2013-06-23 15:44:00,
2013-06-23 09:49:00,77.0,50.9,29.93,WSW,248,0.0,3.8,40,0.00,,,0.00,WUHU216HW,2013-06-23 15:49:00,
2013-06-23 09:54:00,75.0,49.7,29.93,NNW,338,0.0,2.0,41,0.00,,,0.00,WUHU216HW,2013-06-23 15:54:00,
2013-06-23 09:59:00,75.7,49.0,29.92,NNW,338,0.0,2.0,39,0.00,,,0.00,WUHU216HW,2013-06-23 15:59:00,
2013-06-23 10:05:00,75.7,48.2,29.92,NNW,338,0.0,0.0,38,0.00,,,0.00,WUHU216HW,2013-06-23 16:05:00,
2013-06-23 10:10:00,75.0,47.6,29.92,NNW,338,0.0,0.8,39,0.00,,,0.00,WUHU216HW,2013-06-23 16:10:00,
2013-06-23 10:15:00,75.0,48.6,29.92,NW,315,0.0,0.8,39,0.00,,,0.00,WUHU216HW,2013-06-23 16:15:00,
2013-06-23 10:20:00,74.6,47.2,29.92,NNW,338,0.0,2.2,38,0.00,,,0.00,WUHU216HW,2013-06-23 16:20:00,
2013-06-23 10:25:00,77.3,46.6,29.92,SW,225,0.0,2.2,34,0.00,,,0.00,WUHU216HW,2013-06-23 16:25:00,
2013-06-23 10:30:00,77.9,48.6,29.92,SW,225,0.0,2.0,35,0.00,,,0.00,WUHU216HW,2013-06-23 16:30:00,
2013-06-23 10:35:00,77.9,48.4,29.91,West,270,0.0,2.9,37,0.00,,,0.00,WUHU216HW,2013-06-23 16:35:00,
2013-06-23 10:40:00,80.4,50.8,29.91,West,270,0.0,2.9,36,0.00,,,0.00,WUHU216HW,2013-06-23 16:40:00,
2013-06-23 10:45:00,77.3,46.7,29.91,NNW,338,0.0,1.7,35,0.00,,,0.00,WUHU216HW,2013-06-23 16:45:00,
2013-06-23 10:50:00,75.0,46.8,29.91,NNW,338,0.0,1.7,37,0.00,,,0.00,WUHU216HW,2013-06-23 16:50:00,
2013-06-23 10:55:00,74.6,47.2,29.91,NNE,23,0.0,1.3,38,0.00,,,0.00,WUHU216HW,2013-06-23 16:55:00,
2013-06-23 10:57:00,74.4,47.1,29.91,NNE,23,2.4,2.4,37,0.00,,,0.00,WUHU216HW,2013-06-23 16:57:00,
2013-06-23 10:58:00,74.4,47.1,29.91,NNE,23,2.4,2.4,37,0.00,,,0.00,WUHU216HW,2013-06-23 16:58:00,
2013-06-23 11:03:00,75.5,47.9,29.91,WNW,293,0.0,2.4,38,0.00,,,0.00,WUHU216HW,2013-06-23 17:03:00,
2013-06-23 11:08:00,78.6,49.2,29.91,WSW,248,0.0,0.8,36,0.00,,,0.00,WUHU216HW,2013-06-23 17:08:00,
2013-06-23 11:13:00,77.5,47.5,29.91,NNW,338,0.0,0.8,35,0.00,,,0.00,WUHU216HW,2013-06-23 17:13:00,
2013-06-23 11:18:00,75.7,47.9,29.91,NW,315,0.0,2.4,37,0.00,,,0.00,WUHU216HW,2013-06-23 17:18:00,
2013-06-23 11:23:00,73.5,45.8,29.91,West,270,0.0,2.4,37,0.00,,,0.00,WUHU216HW,2013-06-23 17:23:00,
2013-06-23 11:28:00,71.7,46.7,29.90,SW,225,0.0,0.8,41,0.00,,,0.00,WUHU216HW,2013-06-23 17:28:00,
2013-06-23 11:33:00,70.3,44.9,29.90,North,0,2.9,5.3,40,0.00,,,0.00,WUHU216HW,2013-06-23 17:33:00,
2013-06-23 11:38:00,64.9,43.7,29.90,NW,315,0.8,5.3,46,0.00,,,0.00,WUHU216HW,2013-06-23 17:38:00,
2013-06-23 11:43:00,68.9,45.9,29.90,NW,315,0.0,7.1,45,0.00,,,0.00,WUHU216HW,2013-06-23 17:43:00,
2013-06-23 11:48:00,69.2,43.3,29.90,North,0,0.0,7.1,38,0.00,,,0.00,WUHU216HW,2013-06-23 17:48:00,
2013-06-23 11:53:00,71.2,46.3,29.89,SW,225,5.5,5.5,41,0.00,,,0.00,WUHU216HW,2013-06-23 17:53:00,
2013-06-23 11:58:00,70.5,43.5,29.89,West,270,0.0,5.5,38,0.00,,,0.00,WUHU216HW,2013-06-23 17:58:00,
2013-06-23 12:03:00,64.9,42.1,29.89,NNW,338,2.0,4.2,43,0.00,,,0.00,WUHU216HW,2013-06-23 18:03:00,
2013-06-23 12:08:00,63.5,42.7,29.89,NNW,338,0.0,4.2,47,0.00,,,0.00,WUHU216HW,2013-06-23 18:08:00,
2013-06-23 12:13:00,67.2,44.5,29.89,NNW,338,2.4,2.4,44,0.00,,,0.00,WUHU216HW,2013-06-23 18:13:00,
2013-06-23 12:18:00,68.9,44.7,29.89,SSW,203,5.8,5.8,42,0.00,,,0.00,WUHU216HW,2013-06-23 18:18:00,
2013-06-23 12:23:00,68.1,42.2,29.89,NNE,23,5.3,5.8,37,0.00,,,0.00,WUHU216HW,2013-06-23 18:23:00,
2013-06-23 12:28:00,65.8,41.4,29.89,NNE,23,4.2,5.3,41,0.00,,,0.00,WUHU216HW,2013-06-23 18:28:00,
2013-06-23 12:33:00,65.1,43.1,29.89,NNW,338,2.9,5.3,45,0.00,,,0.00,WUHU216HW,2013-06-23 18:33:00,
2013-06-23 12:38:00,64.2,42.2,29.89,NNW,338,0.0,5.3,45,0.00,,,0.00,WUHU216HW,2013-06-23 18:38:00,
2013-06-23 12:43:00,64.9,43.5,29.89,NW,315,1.1,3.5,46,0.00,,,0.00,WUHU216HW,2013-06-23 18:43:00,
2013-06-23 12:48:00,66.9,44.4,29.89,WNW,293,0.0,3.5,45,0.00,,,0.00,WUHU216HW,2013-06-23 18:48:00,
2013-06-23 12:53:00,66.7,44.6,29.88,West,270,0.0,3.8,45,0.00,,,0.00,WUHU216HW,2013-06-23 18:53:00,
2013-06-23 12:58:00,67.8,45.0,29.88,WSW,248,0.0,3.8,44,0.00,,,0.00,WUHU216HW,2013-06-23 18:58:00,
2013-06-23 13:04:00,68.5,45.0,29.88,NW,315,0.0,3.3,43,0.00,,,0.00,WUHU216HW,2013-06-23 19:04:00,
2013-06-23 13:09:00,68.3,43.5,29.88,NNW,338,0.0,1.7,41,0.00,,,0.00,WUHU216HW,2013-06-23 19:09:00,
2013-06-23 13:14:00,67.8,43.8,29.87,North,0,9.3,9.3,41,0.00,,,0.00,WUHU216HW,2013-06-23 19:14:00,
2013-06-23 13:19:00,67.2,43.3,29.88,NNW,338,0.0,9.3,42,0.00,,,0.00,WUHU216HW,2013-06-23 19:19:00,
2013-06-23 13:24:00,69.0,44.3,29.88,North,0,4.0,9.1,41,0.00,,,0.00,WUHU216HW,2013-06-23 19:24:00,
2013-06-23 13:29:00,68.3,44.1,29.88,ENE,68,2.2,4.0,42,0.00,,,0.00,WUHU216HW,2013-06-23 19:29:00,
2013-06-23 13:34:00,68.1,43.5,29.87,NE,45,0.0,4.0,41,0.00,,,0.00,WUHU216HW,2013-06-23 19:34:00,
2013-06-23 13:39:00,69.4,45.2,29.87,WSW,248,0.0,4.0,42,0.00,,,0.00,WUHU216HW,2013-06-23 19:39:00,
2013-06-23 13:44:00,69.8,45.0,29.87,North,0,3.5,3.5,41,0.00,,,0.00,WUHU216HW,2013-06-23 19:44:00,
2013-06-23 13:49:00,67.8,43.2,29.87,WNW,293,0.0,3.5,41,0.00,,,0.00,WUHU216HW,2013-06-23 19:49:00,
2013-06-23 13:54:00,66.9,43.0,29.87,NW,315,1.7,4.2,42,0.00,,,0.00,WUHU216HW,2013-06-23 19:54:00,
2013-06-23 13:59:00,67.2,43.3,29.86,NNW,338,0.0,5.3,42,0.00,,,0.00,WUHU216HW,2013-06-23 19:59:00,
2013-06-23 14:04:00,67.8,41.9,29.86,SSE,158,2.0,5.3,39,0.00,,,0.00,WUHU216HW,2013-06-23 20:04:00,
2013-06-23 14:09:00,67.8,43.6,29.86,NNE,23,0.0,5.5,42,0.00,,,0.00,WUHU216HW,2013-06-23 20:09:00,
2013-06-23 14:14:00,66.9,43.0,29.86,NNW,338,0.0,5.5,42,0.00,,,0.00,WUHU216HW,2013-06-23 20:14:00,
2013-06-23 14:19:00,67.8,44.4,29.86,NNW,338,0.0,2.9,43,0.00,,,0.00,WUHU216HW,2013-06-23 20:19:00,
2013-06-23 14:24:00,68.7,44.6,29.86,NW,315,0.0,2.0,42,0.00,,,0.00,WUHU216HW,2013-06-23 20:24:00,
2013-06-23 14:29:00,69.4,46.4,29.86,WSW,248,3.3,3.3,44,0.00,,,0.00,WUHU216HW,2013-06-23 20:29:00,
2013-06-23 14:34:00,69.6,45.8,29.86,WNW,293,0.4,3.3,43,0.00,,,0.00,WUHU216HW,2013-06-23 20:34:00,
2013-06-23 14:39:00,69.0,44.9,29.86,West,270,0.0,3.1,42,0.00,,,0.00,WUHU216HW,2013-06-23 20:39:00,
2013-06-23 14:44:00,68.9,45.3,29.86,North,0,0.0,2.2,43,0.00,,,0.00,WUHU216HW,2013-06-23 20:44:00,
2013-06-23 14:49:00,69.6,45.4,29.86,WSW,248,0.0,0.4,42,0.00,,,0.00,WUHU216HW,2013-06-23 20:49:00,
2013-06-23 14:54:00,69.4,45.8,29.85,West,270,0.0,0.0,43,0.00,,,0.00,WUHU216HW,2013-06-23 20:54:00,
2013-06-23 14:59:00,67.2,43.3,29.85,SE,135,0.0,0.0,42,0.00,,,0.00,WUHU216HW,2013-06-23 20:59:00,
2013-06-23 15:04:00,66.9,44.0,29.86,North,0,6.2,6.2,44,0.00,,,0.00,WUHU216HW,2013-06-23 21:04:00,
2013-06-23 15:09:00,68.9,44.9,29.85,ENE,68,1.5,6.7,42,0.00,,,0.00,WUHU216HW,2013-06-23 21:09:00,
2013-06-23 15:14:00,69.6,44.8,29.85,NE,45,0.0,6.7,41,0.00,,,0.00,WUHU216HW,2013-06-23 21:14:00,
2013-06-23 15:19:00,68.7,45.2,29.85,ENE,68,0.0,2.6,43,0.00,,,0.00,WUHU216HW,2013-06-23 21:19:00,
2013-06-23 15:24:00,69.4,45.2,29.85,NNE,23,5.5,6.4,42,0.00,,,0.00,WUHU216HW,2013-06-23 21:24:00,
2013-06-23 15:29:00,70.5,46.2,29.85,SW,225,2.2,6.4,42,0.00,,,0.00,WUHU216HW,2013-06-23 21:29:00,
2013-06-23 15:34:00,71.6,46.0,29.85,WSW,248,4.6,4.6,40,0.00,,,0.00,WUHU216HW,2013-06-23 21:34:00,
2013-06-23 15:39:00,73.2,46.7,29.84,NW,315,0.0,4.6,39,0.00,,,0.00,WUHU216HW,2013-06-23 21:39:00,
2013-06-23 15:44:00,73.4,46.9,29.84,West,270,0.0,4.0,39,0.00,,,0.00,WUHU216HW,2013-06-23 21:44:00,
2013-06-23 15:49:00,74.1,46.7,29.84,North,0,4.0,4.0,38,0.00,,,0.00,WUHU216HW,2013-06-23 21:49:00,
2013-06-23 15:54:00,70.8,43.9,29.84,NNW,338,2.2,5.3,38,0.00,,,0.00,WUHU216HW,2013-06-23 21:54:00,
2013-06-23 15:59:00,70.7,45.2,29.84,West,270,0.0,5.3,40,0.00,,,0.00,WUHU216HW,2013-06-23 21:59:00,
2013-06-23 16:04:00,70.3,44.9,29.84,NNW,338,0.0,2.0,40,0.00,,,0.00,WUHU216HW,2013-06-23 22:04:00,
2013-06-23 16:09:00,73.4,45.3,29.84,NNW,338,0.0,0.6,37,0.00,,,0.00,WUHU216HW,2013-06-23 22:09:00,
2013-06-23 16:14:00,70.5,44.3,29.84,West,270,0.0,5.1,39,0.00,,,0.00,WUHU216HW,2013-06-23 22:14:00,
2013-06-23 16:19:00,70.3,44.9,29.83,NW,315,2.6,5.1,40,0.00,,,0.00,WUHU216HW,2013-06-23 22:19:00,
2013-06-23 16:24:00,70.7,45.2,29.83,NW,315,0.0,2.6,40,0.00,,,0.00,WUHU216HW,2013-06-23 22:24:00,
2013-06-23 16:29:00,70.5,45.0,29.83,WSW,248,1.3,2.9,40,0.00,,,0.00,WUHU216HW,2013-06-23 22:29:00,
2013-06-23 16:34:00,70.1,44.0,29.83,WSW,248,0.0,5.8,39,0.00,,,0.00,WUHU216HW,2013-06-23 22:34:00,
2013-06-23 16:39:00,70.7,45.8,29.83,WSW,248,0.0,5.8,40,0.00,,,0.00,WUHU216HW,2013-06-23 22:39:00,
2013-06-23 16:44:00,70.7,45.8,29.83,SW,225,0.0,3.3,41,0.00,,,0.00,WUHU216HW,2013-06-23 22:44:00,
2013-06-23 16:49:00,70.8,45.3,29.83,SW,225,0.0,2.4,40,0.00,,,0.00,WUHU216HW,2013-06-23 22:49:00,
2013-06-23 16:54:00,74.1,46.7,29.83,SW,225,0.0,0.0,38,0.00,,,0.00,WUHU216HW,2013-06-23 22:54:00,
2013-06-23 16:59:00,73.5,46.3,29.83,NE,45,1.5,4.2,38,0.00,,,0.00,WUHU216HW,2013-06-23 22:59:00,
2013-06-23 17:04:00,72.5,43.8,29.82,ENE,68,2.0,6.2,38,0.00,,,0.00,WUHU216HW,2013-06-23 23:04:00,
2013-06-23 17:09:00,72.3,45.1,29.83,NE,45,3.5,6.2,38,0.00,,,0.00,WUHU216HW,2013-06-23 23:09:00,
2013-06-23 17:14:00,73.4,46.1,29.82,NNW,338,0.0,6.2,38,0.00,,,0.00,WUHU216HW,2013-06-23 23:14:00,
2013-06-23 17:19:00,72.6,47.0,29.82,North,0,0.0,5.3,38,0.00,,,0.00,WUHU216HW,2013-06-23 23:19:00,
2013-06-23 17:24:00,72.6,45.5,29.82,NNE,23,6.2,6.2,38,0.00,,,0.00,WUHU216HW,2013-06-23 23:24:00,
2013-06-23 17:29:00,72.1,45.0,29.82,NNW,338,0.0,6.2,38,0.00,,,0.00,WUHU216HW,2013-06-23 23:29:00,
2013-06-23 17:34:00,72.1,45.1,29.82,North,0,4.2,4.6,39,0.00,,,0.00,WUHU216HW,2013-06-23 23:34:00,
2013-06-23 17:39:00,73.2,45.9,29.81,North,0,0.0,4.2,39,0.00,,,0.00,WUHU216HW,2013-06-23 23:39:00,
2013-06-23 17:44:00,72.6,45.5,29.81,NNW,338,0.0,4.2,38,0.00,,,0.00,WUHU216HW,2013-06-23 23:44:00,
2013-06-23 17:49:00,72.5,45.3,29.81,North,0,2.2,4.4,38,0.00,,,0.00,WUHU216HW,2013-06-23 23:49:00,
2013-06-23 17:54:00,72.5,46.0,29.81,NW,315,0.0,4.4,39,0.00,,,0.00,WUHU216HW,2013-06-23 23:54:00,
2013-06-23 17:59:00,73.0,45.0,29.81,NE,45,1.1,3.1,37,0.00,,,0.00,WUHU216HW,2013-06-23 23:59:00,
2013-06-23 18:04:00,71.9,44.8,29.81,NNE,23,0.0,3.8,38,0.00,,,0.00,WUHU216HW,2013-06-24 00:04:00,
2013-06-23 18:09:00,71.2,44.9,29.81,NNE,23,0.0,4.0,39,0.00,,,0.00,WUHU216HW,2013-06-24 00:09:00,
2013-06-23 18:14:00,71.2,44.9,29.81,NNE,23,0.0,4.0,39,0.00,,,0.00,WUHU216HW,2013-06-24 00:14:00,
2013-06-23 18:19:00,72.3,45.1,29.81,WNW,293,0.0,1.7,38,0.00,,,0.00,WUHU216HW,2013-06-24 00:19:00,
2013-06-23 18:24:00,73.9,46.6,29.81,WSW,248,0.0,1.1,38,0.00,,,0.00,WUHU216HW,2013-06-24 00:24:00,
2013-06-23 18:29:00,74.4,47.1,29.81,West,270,0.0,0.0,38,0.00,,,0.00,WUHU216HW,2013-06-24 00:29:00,
2013-06-23 18:34:00,74.3,46.9,29.80,West,270,0.0,0.0,38,0.00,,,0.00,WUHU216HW,2013-06-24 00:34:00,
2013-06-23 18:39:00,73.5,45.9,29.81,NNE,23,2.6,2.6,38,0.00,,,0.00,WUHU216HW,2013-06-24 00:39:00,
2013-06-23 18:44:00,73.0,45.8,29.80,NNE,23,0.0,3.3,38,0.00,,,0.00,WUHU216HW,2013-06-24 00:44:00,
2013-06-23 18:49:00,72.1,45.0,29.80,ENE,68,0.6,3.3,38,0.00,,,0.00,WUHU216HW,2013-06-24 00:49:00,
2013-06-23 18:54:00,71.2,46.3,29.80,ENE,68,3.3,3.8,41,0.00,,,0.00,WUHU216HW,2013-06-24 00:54:00,
2013-06-23 18:59:00,71.0,45.9,29.80,East,90,0.0,3.8,41,0.00,,,0.00,WUHU216HW,2013-06-24 00:59:00,
2013-06-23 19:05:00,70.7,46.3,29.80,East,90,2.2,4.4,41,0.00,,,0.00,WUHU216HW,2013-06-24 01:05:00,
2013-06-23 19:09:00,69.8,45.6,29.80,ESE,113,1.5,4.4,42,0.00,,,0.00,WUHU216HW,2013-06-24 01:09:00,
2013-06-23 19:14:00,69.9,46.3,29.80,SE,135,0.0,3.5,43,0.00,,,0.00,WUHU216HW,2013-06-24 01:14:00,
2013-06-23 19:20:00,69.4,45.8,29.80,ESE,113,0.0,1.7,44,0.00,,,0.00,WUHU216HW,2013-06-24 01:20:00,
2013-06-23 19:25:00,69.0,46.1,29.80,SSE,158,0.0,2.4,44,0.00,,,0.00,WUHU216HW,2013-06-24 01:25:00,
2013-06-23 19:30:00,69.0,46.1,29.80,SSE,158,0.0,2.4,44,0.00,,,0.00,WUHU216HW,2013-06-24 01:30:00,
2013-06-23 19:35:00,68.3,46.2,29.80,ESE,113,0.0,1.3,46,0.00,,,0.00,WUHU216HW,2013-06-24 01:35:00,
2013-06-23 19:40:00,67.8,45.6,29.80,ESE,113,0.0,3.1,45,0.00,,,0.00,WUHU216HW,2013-06-24 01:40:00,
2013-06-23 19:45:00,67.6,46.6,29.80,ESE,113,0.0,3.1,47,0.00,,,0.00,WUHU216HW,2013-06-24 01:45:00,
2013-06-23 19:50:00,67.2,46.9,29.80,ESE,113,0.0,3.3,48,0.00,,,0.00,WUHU216HW,2013-06-24 01:50:00,
2013-06-23 19:55:00,67.1,46.1,29.80,ESE,113,0.0,3.3,47,0.00,,,0.00,WUHU216HW,2013-06-24 01:55:00,
2013-06-23 20:00:00,66.7,47.0,29.80,SE,135,3.3,3.3,49,0.00,,,0.00,WUHU216HW,2013-06-24 02:00:00,
2013-06-23 20:05:00,66.3,47.7,29.80,SE,135,1.5,3.5,51,0.00,,,0.00,WUHU216HW,2013-06-24 02:05:00,
2013-06-23 20:10:00,66.0,47.7,29.80,SE,135,2.0,3.5,52,0.00,,,0.00,WUHU216HW,2013-06-24 02:10:00,
2013-06-23 20:15:00,65.3,46.8,29.80,SE,135,2.6,3.3,52,0.00,,,0.00,WUHU216HW,2013-06-24 02:15:00,
2013-06-23 20:20:00,64.9,47.3,29.80,SE,135,0.0,3.3,53,0.00,,,0.00,WUHU216HW,2013-06-24 02:20:00,
2013-06-23 20:26:00,64.5,47.9,29.80,SE,135,0.0,0.0,55,0.00,,,0.00,WUHU216HW,2013-06-24 02:26:00,
2013-06-23 20:31:00,64.0,47.4,29.80,SE,135,0.0,1.5,55,0.00,,,0.00,WUHU216HW,2013-06-24 02:31:00,
2013-06-23 20:36:00,63.5,47.4,29.80,ESE,113,0.0,1.5,56,0.00,,,0.00,WUHU216HW,2013-06-24 02:36:00,
2013-06-23 20:41:00,63.1,48.0,29.80,ESE,113,1.1,3.3,58,0.00,,,0.00,WUHU216HW,2013-06-24 02:41:00,
2013-06-23 20:46:00,62.7,47.7,29.80,SE,135,0.0,3.3,58,0.00,,,0.00,WUHU216HW,2013-06-24 02:46:00,
2013-06-23 20:51:00,62.4,47.9,29.79,SE,135,0.0,4.0,59,0.00,,,0.00,WUHU216HW,2013-06-24 02:51:00,
2013-06-23 20:56:00,61.8,47.4,29.79,SE,135,0.0,4.0,59,0.00,,,0.00,WUHU216HW,2013-06-24 02:56:00,
2013-06-23 21:01:00,61.5,47.1,29.79,SE,135,1.1,1.5,59,0.00,,,0.00,WUHU216HW,2013-06-24 03:01:00,
2013-06-23 21:06:00,61.1,46.2,29.79,SSE,158,0.0,2.6,58,0.00,,,0.00,WUHU216HW,2013-06-24 03:06:00,
2013-06-23 21:11:00,60.9,46.1,29.79,SSE,158,0.0,2.6,58,0.00,,,0.00,WUHU216HW,2013-06-24 03:11:00,
2013-06-23 21:16:00,60.6,45.7,29.80,SSE,158,0.0,0.0,58,0.00,,,0.00,WUHU216HW,2013-06-24 03:16:00,
2013-06-23 21:22:00,60.8,44.9,29.80,SSE,158,0.0,0.0,56,0.00,,,0.00,WUHU216HW,2013-06-24 03:22:00,
2013-06-23 21:27:00,60.9,45.1,29.80,SSE,158,0.0,0.0,56,0.00,,,0.00,WUHU216HW,2013-06-24 03:27:00,
2013-06-23 21:32:00,60.6,45.3,29.79,SSE,158,0.0,0.0,57,0.00,,,0.00,WUHU216HW,2013-06-24 03:32:00,
2013-06-23 21:37:00,60.4,46.0,29.79,SSE,158,0.0,0.0,59,0.00,,,0.00,WUHU216HW,2013-06-24 03:37:00,
2013-06-23 21:42:00,60.0,45.7,29.79,SSE,158,0.0,0.0,59,0.00,,,0.00,WUHU216HW,2013-06-24 03:42:00,
2013-06-23 21:47:00,59.9,46.0,29.79,SSE,158,0.0,0.0,60,0.00,,,0.00,WUHU216HW,2013-06-24 03:47:00,
2013-06-23 21:52:00,59.7,46.2,29.79,SSE,158,0.0,0.0,61,0.00,,,0.00,WUHU216HW,2013-06-24 03:52:00,
2013-06-23 21:57:00,59.5,45.6,29.79,SSE,158,0.0,0.0,60,0.00,,,0.00,WUHU216HW,2013-06-24 03:57:00,
2013-06-23 21:58:00,59.5,45.6,29.79,SSE,158,0.0,0.0,60,0.00,,,0.00,WUHU216HW,2013-06-24 03:58:00,
2013-06-23 22:01:00,59.5,45.6,29.79,SSE,158,0.0,0.0,60,0.00,,,0.00,WUHU216HW,2013-06-24 04:01:00,
2013-06-23 22:02:00,59.5,45.6,29.79,SSE,158,0.0,0.0,60,0.00,,,0.00,WUHU216HW,2013-06-24 04:02:00,
2013-06-23 22:07:00,59.3,45.9,29.79,SSE,158,0.0,0.0,61,0.00,,,0.00,WUHU216HW,2013-06-24 04:07:00,
2013-06-23 22:12:00,59.3,46.3,29.79,SSE,158,0.0,0.0,62,0.00,,,0.00,WUHU216HW,2013-06-24 04:12:00,
2013-06-23 22:17:00,59.1,46.5,29.79,SSE,158,0.0,0.0,63,0.00,,,0.00,WUHU216HW,2013-06-24 04:17:00,
2013-06-23 22:22:00,59.1,45.7,29.79,SSE,158,0.0,0.0,61,0.00,,,0.00,WUHU216HW,2013-06-24 04:22:00,
2013-06-23 22:27:00,59.0,45.9,29.79,SSE,158,0.0,0.0,62,0.00,,,0.00,WUHU216HW,2013-06-24 04:27:00,
2013-06-23 22:32:00,59.0,45.9,29.80,South,180,0.0,0.0,62,0.00,,,0.00,WUHU216HW,2013-06-24 04:32:00,
2013-06-23 22:37:00,58.8,46.6,29.79,South,180,0.0,0.0,64,0.00,,,0.00,WUHU216HW,2013-06-24 04:37:00,
2013-06-23 22:42:00,58.8,46.6,29.80,South,180,0.0,0.0,64,0.00,,,0.00,WUHU216HW,2013-06-24 04:42:00,
2013-06-23 22:47:00,58.2,46.9,29.80,South,180,0.0,0.0,66,0.00,,,0.00,WUHU216HW,2013-06-24 04:47:00,
2013-06-23 22:52:00,57.7,47.2,29.79,South,180,0.0,0.0,68,0.00,,,0.00,WUHU216HW,2013-06-24 04:52:00,
2013-06-23 22:57:00,57.5,47.0,29.79,South,180,0.0,0.0,68,0.00,,,0.00,WUHU216HW,2013-06-24 04:57:00,
2013-06-23 23:02:00,57.5,47.8,29.79,SSW,203,0.0,0.0,70,0.00,,,0.00,WUHU216HW,2013-06-24 05:02:00,
2013-06-23 23:07:00,57.5,47.0,29.79,SSW,203,0.0,0.0,68,0.00,,,0.00,WUHU216HW,2013-06-24 05:07:00,
2013-06-23 23:12:00,57.9,46.5,29.80,SSW,203,0.0,1.3,66,0.00,,,0.00,WUHU216HW,2013-06-24 05:12:00,
2013-06-23 23:17:00,57.9,47.3,29.79,SSW,203,0.0,1.3,68,0.00,,,0.00,WUHU216HW,2013-06-24 05:17:00,
2013-06-23 23:22:00,57.7,46.8,29.79,SW,225,0.0,0.8,67,0.00,,,0.00,WUHU216HW,2013-06-24 05:22:00,
2013-06-23 23:27:00,57.9,46.5,29.79,SW,225,1.1,1.1,66,0.00,,,0.00,WUHU216HW,2013-06-24 05:27:00,
2013-06-23 23:32:00,57.9,45.7,29.79,SW,225,0.0,1.1,64,0.00,,,0.00,WUHU216HW,2013-06-24 05:32:00,
2013-06-23 23:37:00,58.1,46.3,29.79,South,180,0.0,0.0,65,0.00,,,0.00,WUHU216HW,2013-06-24 05:37:00,
2013-06-23 23:43:00,57.9,46.9,29.79,SSE,158,0.0,0.0,67,0.00,,,0.00,WUHU216HW,2013-06-24 05:43:00,
2013-06-23 23:48:00,57.5,47.0,29.79,SSE,158,0.0,0.0,68,0.00,,,0.00,WUHU216HW,2013-06-24 05:48:00,
2013-06-23 23:53:00,57.3,46.8,29.79,SSE,158,0.0,0.0,68,0.00,,,0.00,WUHU216HW,2013-06-24 05:53:00,
2013-06-23 23:58:00,57.0,46.9,29.79,SSE,158,0.0,0.0,69,0.00,,,0.00,WUHU216HW,2013-06-24 05:58:00,